sensor_id;sensor_type;location;lat;lon;timestamp;pressure;altitude;pressure_sealevel;temperature;humidity
26635;BME280;14490;54.208;37.686;2023-12-07T00:27:52;100941.00;;;-6.77;100.00
26635;BME280;14490;54.208;37.686;2023-12-07T00:30:19;100832.09;;;-7.44;100.00
26635;BME280;14490;54.208;37.686;2023-12-07T00:35:35;100952.41;;;-6.72;100.00
26635;BME280;14490;54.208;37.686;2023-12-07T00:38:16;100930.47;;;-6.83;100.00
26635;BME280;14490;54.208;37.686;2023-12-07T00:40:43;100956.78;;;-6.71;100.00
26635;BME280;14490;54.208;37.686;2023-12-07T00:43:26;100938.41;;;-6.74;100.00
26635;BME280;14490;54.208;37.686;2023-12-07T00:45:53;100948.03;;;-6.72;100.00
26635;BME280;14490;54.208;37.686;2023-12-07T00:48:21;100961.13;;;-6.72;100.00
26635;BME280;14490;54.208;37.686;2023-12-07T00:51:03;100968.13;;;-6.71;100.00
26635;BME280;14490;54.208;37.686;2023-12-07T00:53:45;100944.44;;;-6.83;100.00
26635;BME280;14490;54.208;37.686;2023-12-07T00:56:28;100963.72;;;-6.72;100.00
26635;BME280;14490;54.208;37.686;2023-12-07T01:02:46;100929.50;;;-6.91;100.00
26635;BME280;14490;54.208;37.686;2023-12-07T01:05:13;100974.22;;;-6.72;100.00
26635;BME280;14490;54.208;37.686;2023-12-07T01:07:40;100892.53;;;-7.22;100.00
26635;BME280;14490;54.208;37.686;2023-12-07T01:10:08;100969.81;;;-6.74;100.00
26635;BME280;14490;54.208;37.686;2023-12-07T01:12:36;100934.63;;;-7.00;100.00
26635;BME280;14490;54.208;37.686;2023-12-07T01:15:03;100949.59;;;-6.89;100.00
26635;BME280;14490;54.208;37.686;2023-12-07T01:17:37;100976.75;;;-6.78;100.00
26635;BME280;14490;54.208;37.686;2023-12-07T01:20:07;100972.34;;;-6.85;100.00
26635;BME280;14490;54.208;37.686;2023-12-07T01:22:49;100973.22;;;-6.84;100.00
26635;BME280;14490;54.208;37.686;2023-12-07T01:25:30;100977.63;;;-6.79;100.00
26635;BME280;14490;54.208;37.686;2023-12-07T01:28:11;100958.25;;;-6.93;100.00
26635;BME280;14490;54.208;37.686;2023-12-07T01:30:55;100975.91;;;-6.78;100.00
26635;BME280;14490;54.208;37.686;2023-12-07T01:33:36;100980.25;;;-6.77;100.00
26635;BME280;14490;54.208;37.686;2023-12-07T01:36:06;100986.38;;;-6.77;100.00
26635;BME280;14490;54.208;37.686;2023-12-07T01:38:34;100981.19;;;-6.75;100.00
26635;BME280;14490;54.208;37.686;2023-12-07T01:41:01;100942.50;;;-6.99;100.00
26635;BME280;14490;54.208;37.686;2023-12-07T01:43:28;100983.78;;;-6.74;100.00
26635;BME280;14490;54.208;37.686;2023-12-07T01:45:57;100932.84;;;-7.06;100.00
26635;BME280;14490;54.208;37.686;2023-12-07T01:48:45;100967.13;;;-6.82;100.00
26635;BME280;14490;54.208;37.686;2023-12-07T01:51:16;100963.59;;;-6.84;100.00
26635;BME280;14490;54.208;37.686;2023-12-07T01:53:44;100978.59;;;-6.72;100.00
26635;BME280;14490;54.208;37.686;2023-12-07T01:56:11;100953.03;;;-6.93;100.00
26635;BME280;14490;54.208;37.686;2023-12-07T01:58:39;100986.44;;;-6.71;100.00
26635;BME280;14490;54.208;37.686;2023-12-07T02:01:06;100986.47;;;-6.68;100.00
26635;BME280;14490;54.208;37.686;2023-12-07T02:03:34;100953.97;;;-6.86;100.00
26635;BME280;14490;54.208;37.686;2023-12-07T02:06:03;100965.41;;;-6.80;100.00
26635;BME280;14490;54.208;37.686;2023-12-07T02:08:46;100989.97;;;-6.66;100.00
26635;BME280;14490;54.208;37.686;2023-12-07T02:11:40;100979.44;;;-6.72;100.00
26635;BME280;14490;54.208;37.686;2023-12-07T02:14:22;100983.81;;;-6.71;100.00
26635;BME280;14490;54.208;37.686;2023-12-07T02:17:10;100939.94;;;-6.94;100.00
26635;BME280;14490;54.208;37.686;2023-12-07T02:20:11;100997.88;;;-6.64;100.00
26635;BME280;14490;54.208;37.686;2023-12-07T02:22:52;100960.94;;;-6.87;100.00
26635;BME280;14490;54.208;37.686;2023-12-07T02:29:02;100996.97;;;-6.65;100.00
26635;BME280;14490;54.208;37.686;2023-12-07T02:31:40;100995.19;;;-6.69;100.00
26635;BME280;14490;54.208;37.686;2023-12-07T02:34:07;101002.22;;;-6.65;100.00
26635;BME280;14490;54.208;37.686;2023-12-07T02:36:37;100981.09;;;-6.80;100.00
26635;BME280;14490;54.208;37.686;2023-12-07T02:39:06;100913.41;;;-7.23;100.00
26635;BME280;14490;54.208;37.686;2023-12-07T02:41:35;101008.25;;;-6.70;100.00
26635;BME280;14490;54.208;37.686;2023-12-07T02:50:07;100935.28;;;-7.18;100.00
26635;BME280;14490;54.208;37.686;2023-12-07T02:52:35;101024.00;;;-6.66;100.00
26635;BME280;14490;54.208;37.686;2023-12-07T02:55:16;101020.53;;;-6.65;100.00
26635;BME280;14490;54.208;37.686;2023-12-07T02:57:57;101004.69;;;-6.78;100.00
26635;BME280;14490;54.208;37.686;2023-12-07T03:00:24;101020.44;;;-6.74;100.00
26635;BME280;14490;54.208;37.686;2023-12-07T03:05:40;101037.94;;;-6.68;100.00
26635;BME280;14490;54.208;37.686;2023-12-07T03:08:08;100991.50;;;-6.87;100.00
26635;BME280;14490;54.208;37.686;2023-12-07T03:10:49;101037.06;;;-6.69;100.00
26635;BME280;14490;54.208;37.686;2023-12-07T03:13:31;101021.25;;;-6.78;100.00
26635;BME280;14490;54.208;37.686;2023-12-07T03:16:13;101037.88;;;-6.74;100.00
26635;BME280;14490;54.208;37.686;2023-12-07T03:18:55;100934.16;;;-7.38;100.00
26635;BME280;14490;54.208;37.686;2023-12-07T03:21:23;101043.91;;;-6.80;100.00
26635;BME280;14490;54.208;37.686;2023-12-07T03:24:05;101043.03;;;-6.82;100.00
26635;BME280;14490;54.208;37.686;2023-12-07T03:26:33;101045.63;;;-6.82;100.00
26635;BME280;14490;54.208;37.686;2023-12-07T03:29:00;101046.50;;;-6.83;100.00
26635;BME280;14490;54.208;37.686;2023-12-07T03:31:30;101041.25;;;-6.83;100.00
26635;BME280;14490;54.208;37.686;2023-12-07T03:33:58;101028.06;;;-6.92;100.00
26635;BME280;14490;54.208;37.686;2023-12-07T03:36:28;101043.91;;;-6.81;100.00
26635;BME280;14490;54.208;37.686;2023-12-07T03:39:09;100989.34;;;-7.17;100.00
26635;BME280;14490;54.208;37.686;2023-12-07T03:41:50;100853.31;;;-7.91;100.00
26635;BME280;14490;54.208;37.686;2023-12-07T03:46:52;101051.81;;;-6.78;100.00
26635;BME280;14490;54.208;37.686;2023-12-07T03:49:33;101046.56;;;-6.78;100.00
26635;BME280;14490;54.208;37.686;2023-12-07T03:52:05;100966.56;;;-7.26;100.00
26635;BME280;14490;54.208;37.686;2023-12-07T03:54:46;101050.91;;;-6.79;100.00
26635;BME280;14490;54.208;37.686;2023-12-07T03:57:13;101045.69;;;-6.79;100.00
26635;BME280;14490;54.208;37.686;2023-12-07T03:59:41;101044.78;;;-6.79;100.00
26635;BME280;14490;54.208;37.686;2023-12-07T04:02:22;101023.59;;;-6.99;100.00
26635;BME280;14490;54.208;37.686;2023-12-07T04:04:49;101046.53;;;-6.81;100.00
26635;BME280;14490;54.208;37.686;2023-12-07T04:07:32;101045.63;;;-6.82;100.00
26635;BME280;14490;54.208;37.686;2023-12-07T04:10:00;100835.56;;;-8.11;100.00
26635;BME280;14490;54.208;37.686;2023-12-07T04:12:41;101049.09;;;-6.83;100.00
26635;BME280;14490;54.208;37.686;2023-12-07T04:15:22;101053.47;;;-6.83;100.00
26635;BME280;14490;54.208;37.686;2023-12-07T04:18:03;100984.88;;;-7.26;100.00
26635;BME280;14490;54.208;37.686;2023-12-07T04:23:15;101054.25;;;-6.89;100.00
26635;BME280;14490;54.208;37.686;2023-12-07T04:25:56;100990.09;;;-7.27;100.00
26635;BME280;14490;54.208;37.686;2023-12-07T04:28:42;101057.75;;;-6.88;100.00
26635;BME280;14490;54.208;37.686;2023-12-07T04:31:31;101063.88;;;-6.88;100.00
26635;BME280;14490;54.208;37.686;2023-12-07T04:34:32;101019.13;;;-7.09;100.00
26635;BME280;14490;54.208;37.686;2023-12-07T04:37:14;101063.00;;;-6.88;100.00
26635;BME280;14490;54.208;37.686;2023-12-07T04:46:01;101002.28;;;-7.26;100.00
26635;BME280;14490;54.208;37.686;2023-12-07T04:48:45;100958.38;;;-7.51;100.00
26635;BME280;14490;54.208;37.686;2023-12-07T04:51:27;101069.91;;;-6.92;100.00
26635;BME280;14490;54.208;37.686;2023-12-07T04:54:08;101072.50;;;-6.96;100.00
26635;BME280;14490;54.208;37.686;2023-12-07T04:56:50;101068.81;;;-7.07;100.00
26635;BME280;14490;54.208;37.686;2023-12-07T04:59:31;101081.97;;;-7.03;100.00
26635;BME280;14490;54.208;37.686;2023-12-07T05:05:48;101096.72;;;-7.09;100.00
26635;BME280;14490;54.208;37.686;2023-12-07T05:08:16;101094.09;;;-7.09;100.00
26635;BME280;14490;54.208;37.686;2023-12-07T05:10:57;101098.47;;;-7.08;100.00
26635;BME280;14490;54.208;37.686;2023-12-07T05:15:59;101084.38;;;-7.18;100.00
26635;BME280;14490;54.208;37.686;2023-12-07T05:18:27;101088.78;;;-7.15;100.00
26635;BME280;14490;54.208;37.686;2023-12-07T05:21:09;101097.50;;;-7.15;100.00
26635;BME280;14490;54.208;37.686;2023-12-07T05:23:37;101113.28;;;-7.09;100.00
26635;BME280;14490;54.208;37.686;2023-12-07T05:26:04;101108.91;;;-7.10;100.00
26635;BME280;14490;54.208;37.686;2023-12-07T05:28:33;101123.75;;;-7.09;100.00
26635;BME280;14490;54.208;37.686;2023-12-07T05:31:03;101095.59;;;-7.25;100.00
26635;BME280;14490;54.208;37.686;2023-12-07T05:33:30;101091.25;;;-7.23;100.00
26635;BME280;14490;54.208;37.686;2023-12-07T05:35:58;101090.31;;;-7.28;100.00
26635;BME280;14490;54.208;37.686;2023-12-07T05:38:27;101121.94;;;-7.13;100.00
26635;BME280;14490;54.208;37.686;2023-12-07T05:41:08;101119.31;;;-7.13;100.00
26635;BME280;14490;54.208;37.686;2023-12-07T05:43:40;101099.94;;;-7.26;100.00
26635;BME280;14490;54.208;37.686;2023-12-07T05:46:21;101131.50;;;-7.13;100.00
26635;BME280;14490;54.208;37.686;2023-12-07T05:48:48;101138.50;;;-7.12;100.00
26635;BME280;14490;54.208;37.686;2023-12-07T05:51:20;101128.97;;;-7.09;100.00
26635;BME280;14490;54.208;37.686;2023-12-07T05:53:49;101129.03;;;-7.06;100.00
26635;BME280;14490;54.208;37.686;2023-12-07T05:56:30;101129.06;;;-7.03;100.00
26635;BME280;14490;54.208;37.686;2023-12-07T05:59:11;101126.50;;;-6.98;100.00
26635;BME280;14490;54.208;37.686;2023-12-07T06:01:53;101127.41;;;-6.98;100.00
26635;BME280;14490;54.208;37.686;2023-12-07T06:04:34;101125.72;;;-6.94;100.00
26635;BME280;14490;54.208;37.686;2023-12-07T06:07:16;101084.34;;;-7.20;100.00
26635;BME280;14490;54.208;37.686;2023-12-07T06:23:27;101134.53;;;-6.88;100.00
26635;BME280;14490;54.208;37.686;2023-12-07T06:25:54;101137.16;;;-6.86;100.00
26635;BME280;14490;54.208;37.686;2023-12-07T06:28:22;101128.41;;;-6.87;100.00
26635;BME280;14490;54.208;37.686;2023-12-07T06:31:06;101125.84;;;-6.84;100.00
26635;BME280;14490;54.208;37.686;2023-12-07T06:33:34;101089.75;;;-7.07;100.00
26635;BME280;14490;54.208;37.686;2023-12-07T06:36:18;101133.69;;;-6.85;100.00
26635;BME280;14490;54.208;37.686;2023-12-07T06:38:48;101135.38;;;-6.89;100.00
26635;BME280;14490;54.208;37.686;2023-12-07T06:41:29;101130.09;;;-6.92;100.00
26635;BME280;14490;54.208;37.686;2023-12-07T06:43:56;101134.53;;;-6.88;100.00
26635;BME280;14490;54.208;37.686;2023-12-07T06:46:24;101143.28;;;-6.86;100.00
26635;BME280;14490;54.208;37.686;2023-12-07T06:48:51;101111.66;;;-7.01;100.00
26635;BME280;14490;54.208;37.686;2023-12-07T06:51:18;101143.38;;;-6.80;100.00
26635;BME280;14490;54.208;37.686;2023-12-07T06:53:45;101141.69;;;-6.75;100.00
26635;BME280;14490;54.208;37.686;2023-12-07T06:56:14;101056.44;;;-7.19;100.00
26635;BME280;14490;54.208;37.686;2023-12-07T06:58:55;101115.41;;;-6.81;100.00
26635;BME280;14490;54.208;37.686;2023-12-07T07:01:36;101158.44;;;-6.63;100.00
26635;BME280;14490;54.208;37.686;2023-12-07T07:04:17;101140.09;;;-6.63;100.00
26635;BME280;14490;54.208;37.686;2023-12-07T07:06:45;101148.84;;;-6.61;100.00
26635;BME280;14490;54.208;37.686;2023-12-07T07:09:12;101140.09;;;-6.63;100.00
26635;BME280;14490;54.208;37.686;2023-12-07T07:11:46;101096.09;;;-6.92;100.00
26635;BME280;14490;54.208;37.686;2023-12-07T07:14:14;101093.34;;;-7.01;100.00
26635;BME280;14490;54.208;37.686;2023-12-07T07:16:42;101156.66;;;-6.66;100.00
26635;BME280;14490;54.208;37.686;2023-12-07T07:19:10;101152.28;;;-6.66;100.00
26635;BME280;14490;54.208;37.686;2023-12-07T07:21:51;101154.00;;;-6.68;100.00
26635;BME280;14490;54.208;37.686;2023-12-07T07:24:18;101147.88;;;-6.70;100.00
26635;BME280;14490;54.208;37.686;2023-12-07T07:26:47;101131.13;;;-6.81;100.00
26635;BME280;14490;54.208;37.686;2023-12-07T07:29:28;101053.66;;;-7.31;100.00
26635;BME280;14490;54.208;37.686;2023-12-07T07:31:55;101147.78;;;-6.76;100.00
26635;BME280;14490;54.208;37.686;2023-12-07T07:34:22;101152.09;;;-6.78;100.00
26635;BME280;14490;54.208;37.686;2023-12-07T07:36:50;101159.06;;;-6.80;100.00
26635;BME280;14490;54.208;37.686;2023-12-07T07:39:38;101159.94;;;-6.79;100.00
26635;BME280;14490;54.208;37.686;2023-12-07T08:30:13;101148.22;;;-7.04;100.00
26635;BME280;14490;54.208;37.686;2023-12-07T08:32:57;101157.09;;;-6.94;100.00
26635;BME280;14490;54.208;37.686;2023-12-07T08:35:50;101162.19;;;-7.03;100.00
26635;BME280;14490;54.208;37.686;2023-12-07T08:38:31;101119.97;;;-7.26;100.00
26635;BME280;14490;54.208;37.686;2023-12-07T08:40:58;101168.38;;;-7.00;100.00
26635;BME280;14490;54.208;37.686;2023-12-07T08:43:39;101171.81;;;-7.02;100.00
26635;BME280;14490;54.208;37.686;2023-12-07T09:16:55;101143.09;;;-6.98;100.00
26635;BME280;14490;54.208;37.686;2023-12-07T09:19:22;101100.13;;;-7.15;100.00
26635;BME280;14490;54.208;37.686;2023-12-07T09:21:54;101129.22;;;-6.94;100.00
26635;BME280;14490;54.208;37.686;2023-12-07T09:24:21;101136.28;;;-6.87;100.00
26635;BME280;14490;54.208;37.686;2023-12-07T09:26:49;101141.53;;;-6.85;100.00
26635;BME280;14490;54.208;37.686;2023-12-07T09:29:30;100994.75;;;-7.66;100.00
26635;BME280;14490;54.208;37.686;2023-12-07T09:31:58;101140.66;;;-6.87;100.00
26635;BME280;14490;54.208;37.686;2023-12-07T09:34:25;101150.38;;;-6.77;100.00
26635;BME280;14490;54.208;37.686;2023-12-07T09:37:05;101151.31;;;-6.74;100.00
26635;BME280;14490;54.208;37.686;2023-12-07T09:39:47;101143.44;;;-6.74;100.00
26635;BME280;14490;54.208;37.686;2023-12-07T09:42:29;101145.25;;;-6.70;100.00
26635;BME280;14490;54.208;37.686;2023-12-07T09:45:15;101155.91;;;-6.57;100.00
26635;BME280;14490;54.208;37.686;2023-12-07T09:54:50;101089.34;;;-6.75;100.00
26635;BME280;14490;54.208;37.686;2023-12-07T09:57:18;101131.59;;;-6.47;100.00
26635;BME280;14490;54.208;37.686;2023-12-07T09:59:46;101107.00;;;-6.60;100.00
26635;BME280;14490;54.208;37.686;2023-12-07T10:02:27;101129.91;;;-6.41;100.00
26635;BME280;14490;54.208;37.686;2023-12-07T10:05:05;101111.41;;;-6.56;100.00
26635;BME280;14490;54.208;37.686;2023-12-07T10:07:34;101138.66;;;-6.40;100.00
26635;BME280;14490;54.208;37.686;2023-12-07T10:10:05;101133.47;;;-6.37;100.00
26635;BME280;14490;54.208;37.686;2023-12-07T10:12:45;101107.09;;;-6.52;100.00
26635;BME280;14490;54.208;37.686;2023-12-07T10:15:14;101027.97;;;-6.98;100.00
26635;BME280;14490;54.208;37.686;2023-12-07T10:17:47;101092.22;;;-6.55;100.00
26635;BME280;14490;54.208;37.686;2023-12-07T10:23:06;101142.47;;;-6.17;100.00
26635;BME280;14490;54.208;37.686;2023-12-07T10:25:52;101138.13;;;-6.15;100.00
26635;BME280;14490;54.208;37.686;2023-12-07T10:28:21;101123.22;;;-6.19;100.00
26635;BME280;14490;54.208;37.686;2023-12-07T10:30:48;101121.56;;;-6.11;100.00
26635;BME280;14490;54.208;37.686;2023-12-07T10:33:15;101126.84;;;-6.08;100.00
26635;BME280;14490;54.208;37.686;2023-12-07T10:35:43;101101.38;;;-6.20;100.00
26635;BME280;14490;54.208;37.686;2023-12-07T10:38:10;101064.44;;;-6.42;100.00
26635;BME280;14490;54.208;37.686;2023-12-07T10:43:29;101043.28;;;-6.59;100.00
26635;BME280;14490;54.208;37.686;2023-12-07T10:46:15;101059.16;;;-6.48;100.00
26635;BME280;14490;54.208;37.686;2023-12-07T10:49:07;100989.66;;;-6.93;100.00
26635;BME280;14490;54.208;37.686;2023-12-07T10:51:47;101092.44;;;-6.38;100.00
26635;BME280;14490;54.208;37.686;2023-12-07T10:54:46;101087.06;;;-6.49;100.00
26635;BME280;14490;54.208;37.686;2023-12-07T10:57:30;101064.94;;;-6.74;100.00
26635;BME280;14490;54.208;37.686;2023-12-07T11:02:37;101035.81;;;-6.99;100.00
26635;BME280;14490;54.208;37.686;2023-12-07T11:07:54;101106.13;;;-6.60;100.00
26635;BME280;14490;54.208;37.686;2023-12-07T11:12:58;101115.66;;;-6.63;100.00
26635;BME280;14490;54.208;37.686;2023-12-07T11:15:39;101113.97;;;-6.60;100.00
26635;BME280;14490;54.208;37.686;2023-12-07T11:18:24;101034.94;;;-7.00;100.00
26635;BME280;14490;54.208;37.686;2023-12-07T11:21:01;101111.41;;;-6.56;100.00
26635;BME280;14490;54.208;37.686;2023-12-07T11:23:43;100979.56;;;-7.33;100.00
26635;BME280;14490;54.208;37.686;2023-12-07T11:26:29;101085.97;;;-6.66;100.00
26635;BME280;14490;54.208;37.686;2023-12-07T11:28:57;101113.22;;;-6.52;100.00
26635;BME280;14490;54.208;37.686;2023-12-07T11:33:55;100942.56;;;-7.60;100.00
26635;BME280;14490;54.208;37.686;2023-12-07T11:36:38;100789.59;;;-8.63;100.00
26635;BME280;14490;54.208;37.686;2023-12-07T11:39:29;101113.81;;;-6.73;100.00
26635;BME280;14490;54.208;37.686;2023-12-07T11:42:26;101112.94;;;-6.73;100.00
26635;BME280;14490;54.208;37.686;2023-12-07T11:44:57;101102.41;;;-6.75;100.00
26635;BME280;14490;54.208;37.686;2023-12-07T11:47:38;101107.66;;;-6.76;100.00
26635;BME280;14490;54.208;37.686;2023-12-07T11:50:07;101106.69;;;-6.83;100.00
26635;BME280;14490;54.208;37.686;2023-12-07T11:52:35;101118.94;;;-6.80;100.00
26635;BME280;14490;54.208;37.686;2023-12-07T11:55:04;101119.81;;;-6.81;100.00
26635;BME280;14490;54.208;37.686;2023-12-07T11:57:32;101099.47;;;-6.99;100.00
26635;BME280;14490;54.208;37.686;2023-12-07T12:00:01;101118.78;;;-6.91;100.00
26635;BME280;14490;54.208;37.686;2023-12-07T12:02:29;101129.22;;;-6.94;100.00
26635;BME280;14490;54.208;37.686;2023-12-07T12:04:59;101102.81;;;-7.07;100.00
26635;BME280;14490;54.208;37.686;2023-12-07T12:10:05;101136.78;;;-7.12;100.00
26635;BME280;14490;54.208;37.686;2023-12-07T12:12:57;101126.22;;;-7.18;100.00
26635;BME280;14490;54.208;37.686;2023-12-07T12:15:41;101093.53;;;-7.44;100.00
26635;BME280;14490;54.208;37.686;2023-12-07T12:18:12;101147.84;;;-7.28;100.00
26635;BME280;14490;54.208;37.686;2023-12-07T12:20:53;101145.97;;;-7.35;100.00
26635;BME280;14490;54.208;37.686;2023-12-07T12:23:23;101152.81;;;-7.43;100.00
26635;BME280;14490;54.208;37.686;2023-12-07T12:29:31;101000.16;;;-8.56;100.00
26635;BME280;14490;54.208;37.686;2023-12-07T12:31:59;101150.56;;;-7.73;100.00
26635;BME280;14490;54.208;37.686;2023-12-07T12:34:27;101159.28;;;-7.72;100.00
26635;BME280;14490;54.208;37.686;2023-12-07T12:36:55;101108.22;;;-8.02;100.00
26635;BME280;14490;54.208;37.686;2023-12-07T12:39:26;101154.78;;;-7.80;100.00
26635;BME280;14490;54.208;37.686;2023-12-07T12:44:35;101162.41;;;-7.90;100.00
26635;BME280;14490;54.208;37.686;2023-12-07T12:47:18;101148.44;;;-7.94;100.00
26635;BME280;14490;54.208;37.686;2023-12-07T12:49:46;101149.22;;;-7.98;100.00
26635;BME280;14490;54.208;37.686;2023-12-07T12:52:18;101151.72;;;-8.04;100.00
26635;BME280;14490;54.208;37.686;2023-12-07T12:54:59;101096.97;;;-8.44;100.00
26635;BME280;14490;54.208;37.686;2023-12-07T12:57:28;101095.03;;;-8.54;100.00
26635;BME280;14490;54.208;37.686;2023-12-07T13:03:42;101122.81;;;-8.56;100.00
26635;BME280;14490;54.208;37.686;2023-12-07T13:06:23;101123.50;;;-8.65;100.00
26635;BME280;14490;54.208;37.686;2023-12-07T13:09:05;101168.31;;;-8.45;100.00
26635;BME280;14490;54.208;37.686;2023-12-07T13:11:47;101141.88;;;-8.60;100.00
26635;BME280;14490;54.208;37.686;2023-12-07T13:14:31;101062.56;;;-9.09;100.00
26635;BME280;14490;54.208;37.686;2023-12-07T13:17:15;101160.25;;;-8.56;100.00
26635;BME280;14490;54.208;37.686;2023-12-07T13:23:24;101122.91;;;-8.92;100.00
26635;BME280;14490;54.208;37.686;2023-12-07T13:25:52;101165.88;;;-8.75;100.00
26635;BME280;14490;54.208;37.686;2023-12-07T13:28:19;101033.41;;;-9.67;100.00
26635;BME280;14490;54.208;37.686;2023-12-07T13:30:47;101160.13;;;-8.99;100.00
26635;BME280;14490;54.208;37.686;2023-12-07T13:33:15;101130.25;;;-9.12;100.00
26635;BME280;14490;54.208;37.686;2023-12-07T13:35:44;101180.34;;;-8.89;100.00
26635;BME280;14490;54.208;37.686;2023-12-07T14:18:53;101120.06;;;-9.74;100.00
26635;BME280;14490;54.208;37.686;2023-12-07T14:21:34;101199.31;;;-9.32;100.00
26635;BME280;14490;54.208;37.686;2023-12-07T14:24:15;101197.53;;;-9.33;100.00
26635;BME280;14490;54.208;37.686;2023-12-07T14:26:43;101197.44;;;-9.36;100.00
26635;BME280;14490;54.208;37.686;2023-12-07T14:29:11;101205.19;;;-9.39;100.00
26635;BME280;14490;54.208;37.686;2023-12-07T14:31:40;101205.19;;;-9.39;100.00
26635;BME280;14490;54.208;37.686;2023-12-07T14:34:10;101197.06;;;-9.51;100.00
26635;BME280;14490;54.208;37.686;2023-12-07T14:36:39;101214.69;;;-9.41;100.00
26635;BME280;14490;54.208;37.686;2023-12-07T14:39:07;101193.63;;;-9.50;100.00
26635;BME280;14490;54.208;37.686;2023-12-07T14:41:34;101202.31;;;-9.50;100.00
26635;BME280;14490;54.208;37.686;2023-12-07T14:44:15;101209.25;;;-9.50;100.00
26635;BME280;14490;54.208;37.686;2023-12-07T14:46:48;101209.06;;;-9.58;100.00
26635;BME280;14490;54.208;37.686;2023-12-07T14:56:22;101175.50;;;-9.78;100.00
26635;BME280;14490;54.208;37.686;2023-12-07T14:58:49;101210.78;;;-9.58;100.00
26635;BME280;14490;54.208;37.686;2023-12-07T15:01:39;101212.44;;;-9.60;100.00
26635;BME280;14490;54.208;37.686;2023-12-07T15:04:08;101199.31;;;-9.65;100.00
26635;BME280;14490;54.208;37.686;2023-12-07T15:06:35;101199.09;;;-9.72;100.00
26635;BME280;14490;54.208;37.686;2023-12-07T15:09:03;101180.47;;;-9.87;100.00
26635;BME280;14490;54.208;37.686;2023-12-07T15:11:34;101130.97;;;-10.22;100.00
26635;BME280;14490;54.208;37.686;2023-12-07T15:14:02;101144.81;;;-10.23;100.00
26635;BME280;14490;54.208;37.686;2023-12-07T15:16:29;101223.00;;;-9.88;100.00
26635;BME280;14490;54.208;37.686;2023-12-07T15:18:58;101163.97;;;-10.21;100.00
26635;BME280;14490;54.208;37.686;2023-12-07T15:21:25;101169.06;;;-10.24;100.00
26635;BME280;14490;54.208;37.686;2023-12-07T15:23:52;101210.47;;;-10.02;100.00
26635;BME280;14490;54.208;37.686;2023-12-07T15:26:35;101135.41;;;-10.49;100.00
26635;BME280;14490;54.208;37.686;2023-12-07T15:29:16;101204.94;;;-10.14;100.00
26635;BME280;14490;54.208;37.686;2023-12-07T15:31:57;101199.38;;;-10.26;100.00
26635;BME280;14490;54.208;37.686;2023-12-07T15:34:24;101211.59;;;-10.23;100.00
26635;BME280;14490;54.208;37.686;2023-12-07T15:37:05;101203.53;;;-10.32;100.00
26635;BME280;14490;54.208;37.686;2023-12-07T15:39:33;101217.69;;;-10.23;100.00
26635;BME280;14490;54.208;37.686;2023-12-07T15:42:10;101225.50;;;-10.23;100.00
26635;BME280;14490;54.208;37.686;2023-12-07T15:44:51;101225.66;;;-10.18;100.00
26635;BME280;14490;54.208;37.686;2023-12-07T15:47:19;101185.94;;;-10.41;100.00
26635;BME280;14490;54.208;37.686;2023-12-07T15:50:00;101238.09;;;-10.07;100.00
26635;BME280;14490;54.208;37.686;2023-12-07T15:52:27;101246.91;;;-10.02;100.00
26635;BME280;14490;54.208;37.686;2023-12-07T15:54:54;101246.19;;;-9.96;100.00
26635;BME280;14490;54.208;37.686;2023-12-07T15:57:29;101164.28;;;-10.40;100.00
26635;BME280;14490;54.208;37.686;2023-12-07T15:59:56;101229.81;;;-9.92;100.00
26635;BME280;14490;54.208;37.686;2023-12-07T16:02:37;101244.09;;;-9.78;100.00
26635;BME280;14490;54.208;37.686;2023-12-07T16:05:05;101253.81;;;-9.72;100.00
26635;BME280;14490;54.208;37.686;2023-12-07T16:07:46;101250.44;;;-9.68;100.00
26635;BME280;14490;54.208;37.686;2023-12-07T16:10:28;101202.91;;;-9.92;100.00
26635;BME280;14490;54.208;37.686;2023-12-07T16:20:02;101218.44;;;-9.64;100.00
26635;BME280;14490;54.208;37.686;2023-12-07T16:22:35;101244.75;;;-9.54;100.00
26635;BME280;14490;54.208;37.686;2023-12-07T16:25:17;101241.28;;;-9.54;100.00
26635;BME280;14490;54.208;37.686;2023-12-07T16:27:45;101221.88;;;-9.65;100.00
26635;BME280;14490;54.208;37.686;2023-12-07T16:30:39;101178.81;;;-9.85;100.00
26635;BME280;14490;54.208;37.686;2023-12-07T16:33:21;101199.09;;;-9.72;100.00
26635;BME280;14490;54.208;37.686;2023-12-07T16:35:50;101139.03;;;-10.11;100.00
26635;BME280;14490;54.208;37.686;2023-12-07T16:38:39;101243.19;;;-9.49;100.00
26635;BME280;14490;54.208;37.686;2023-12-07T16:41:21;101233.63;;;-9.48;100.00
26635;BME280;14490;54.208;37.686;2023-12-07T16:44:03;101246.63;;;-9.50;100.00
26635;BME280;14490;54.208;37.686;2023-12-07T16:46:45;101223.03;;;-9.54;100.00
26635;BME280;14490;54.208;37.686;2023-12-07T16:49:27;101221.88;;;-9.65;100.00
26635;BME280;14490;54.208;37.686;2023-12-07T16:59:02;101182.94;;;-10.25;100.00
26635;BME280;14490;54.208;37.686;2023-12-07T17:01:30;101166.13;;;-10.36;100.00
26635;BME280;14490;54.208;37.686;2023-12-07T17:06:34;101209.41;;;-10.08;100.00
26635;BME280;14490;54.208;37.686;2023-12-07T17:11:36;100911.75;;;-11.74;100.00
26635;BME280;14490;54.208;37.686;2023-12-07T17:14:05;101239.94;;;-9.73;100.00
26635;BME280;14490;54.208;37.686;2023-12-07T17:16:47;101242.72;;;-9.65;100.00
26635;BME280;14490;54.208;37.686;2023-12-07T17:19:14;101020.69;;;-10.89;100.00
26635;BME280;14490;54.208;37.686;2023-12-07T17:21:56;101183.06;;;-9.87;100.00
26635;BME280;14490;54.208;37.686;2023-12-07T17:24:37;101244.97;;;-9.46;100.00
26635;BME280;14490;54.208;37.686;2023-12-07T17:27:18;101193.06;;;-9.71;100.00
26635;BME280;14490;54.208;37.686;2023-12-07T17:33:42;101022.19;;;-10.68;100.00